sensor_id;sensor_type;location;lat;lon;timestamp;P1;durP1;ratioP1;P2;durP2;ratioP2
19705;SDS011;10003;52.506;4.700;2023-04-15T00:00:55;3.43;;;2.37;;
19705;SDS011;10003;52.506;4.700;2023-04-15T00:03:25;2.37;;;2.17;;
19705;SDS011;10003;52.506;4.700;2023-04-15T00:05:54;9.23;;;5.27;;
19705;SDS011;10003;52.506;4.700;2023-04-15T00:08:22;3.77;;;3.47;;
19705;SDS011;10003;52.506;4.700;2023-04-15T00:10:51;7.50;;;4.43;;
19705;SDS011;10003;52.506;4.700;2023-04-15T00:13:20;8.50;;;4.37;;
19705;SDS011;10003;52.506;4.700;2023-04-15T00:15:49;5.70;;;4.67;;
19705;SDS011;10003;52.506;4.700;2023-04-15T00:18:17;2.77;;;2.50;;
19705;SDS011;10003;52.506;4.700;2023-04-15T00:20:47;5.00;;;4.50;;
19705;SDS011;10003;52.506;4.700;2023-04-15T00:23:15;3.13;;;2.93;;
19705;SDS011;10003;52.506;4.700;2023-04-15T00:25:44;3.57;;;3.33;;
19705;SDS011;10003;52.506;4.700;2023-04-15T00:28:12;1.93;;;1.83;;
19705;SDS011;10003;52.506;4.700;2023-04-15T00:30:41;3.60;;;2.80;;
19705;SDS011;10003;52.506;4.700;2023-04-15T00:33:09;9.57;;;5.60;;
19705;SDS011;10003;52.506;4.700;2023-04-15T00:35:37;5.73;;;4.57;;
19705;SDS011;10003;52.506;4.700;2023-04-15T00:38:08;2.50;;;2.30;;
19705;SDS011;10003;52.506;4.700;2023-04-15T00:40:37;2.87;;;2.60;;
19705;SDS011;10003;52.506;4.700;2023-04-15T00:43:05;2.97;;;2.77;;
19705;SDS011;10003;52.506;4.700;2023-04-15T00:45:34;4.33;;;3.30;;
19705;SDS011;10003;52.506;4.700;2023-04-15T00:48:02;4.53;;;3.30;;
19705;SDS011;10003;52.506;4.700;2023-04-15T00:50:32;6.03;;;4.27;;
19705;SDS011;10003;52.506;4.700;2023-04-15T00:53:00;7.50;;;5.57;;
19705;SDS011;10003;52.506;4.700;2023-04-15T00:55:30;6.57;;;3.47;;
19705;SDS011;10003;52.506;4.700;2023-04-15T00:57:59;4.27;;;3.83;;
19705;SDS011;10003;52.506;4.700;2023-04-15T01:00:27;3.67;;;3.07;;
19705;SDS011;10003;52.506;4.700;2023-04-15T01:02:56;4.00;;;2.83;;
19705;SDS011;10003;52.506;4.700;2023-04-15T01:05:25;8.50;;;5.47;;
19705;SDS011;10003;52.506;4.700;2023-04-15T01:07:53;3.90;;;3.50;;
19705;SDS011;10003;52.506;4.700;2023-04-15T01:10:22;3.97;;;3.07;;
19705;SDS011;10003;52.506;4.700;2023-04-15T01:12:52;5.17;;;3.43;;
19705;SDS011;10003;52.506;4.700;2023-04-15T01:15:21;4.17;;;2.83;;
19705;SDS011;10003;52.506;4.700;2023-04-15T01:17:49;4.50;;;4.07;;
19705;SDS011;10003;52.506;4.700;2023-04-15T01:20:18;8.20;;;4.33;;
19705;SDS011;10003;52.506;4.700;2023-04-15T01:22:47;3.40;;;3.20;;
19705;SDS011;10003;52.506;4.700;2023-04-15T01:25:17;4.07;;;3.33;;
19705;SDS011;10003;52.506;4.700;2023-04-15T01:27:47;1.90;;;1.80;;
19705;SDS011;10003;52.506;4.700;2023-04-15T01:30:15;4.37;;;3.47;;
19705;SDS011;10003;52.506;4.700;2023-04-15T01:32:44;3.63;;;3.33;;
19705;SDS011;10003;52.506;4.700;2023-04-15T01:35:12;2.70;;;2.47;;
19705;SDS011;10003;52.506;4.700;2023-04-15T01:37:41;2.60;;;2.43;;
19705;SDS011;10003;52.506;4.700;2023-04-15T01:40:09;3.77;;;3.47;;
19705;SDS011;10003;52.506;4.700;2023-04-15T01:42:39;3.40;;;3.10;;
19705;SDS011;10003;52.506;4.700;2023-04-15T01:45:09;5.23;;;2.63;;
19705;SDS011;10003;52.506;4.700;2023-04-15T01:47:38;10.20;;;6.00;;
19705;SDS011;10003;52.506;4.700;2023-04-15T01:50:07;3.83;;;3.53;;
19705;SDS011;10003;52.506;4.700;2023-04-15T01:52:35;2.73;;;2.47;;
19705;SDS011;10003;52.506;4.700;2023-04-15T01:55:04;12.03;;;6.77;;
19705;SDS011;10003;52.506;4.700;2023-04-15T01:57:33;3.70;;;3.40;;
19705;SDS011;10003;52.506;4.700;2023-04-15T02:00:02;4.93;;;3.77;;
19705;SDS011;10003;52.506;4.700;2023-04-15T02:02:34;5.03;;;3.57;;
19705;SDS011;10003;52.506;4.700;2023-04-15T02:05:03;5.37;;;4.87;;
19705;SDS011;10003;52.506;4.700;2023-04-15T02:07:32;6.37;;;4.33;;
19705;SDS011;10003;52.506;4.700;2023-04-15T02:10:01;3.77;;;3.47;;
19705;SDS011;10003;52.506;4.700;2023-04-15T02:12:29;7.97;;;5.03;;
19705;SDS011;10003;52.506;4.700;2023-04-15T02:14:58;4.37;;;3.97;;
19705;SDS011;10003;52.506;4.700;2023-04-15T02:17:26;8.30;;;4.33;;
19705;SDS011;10003;52.506;4.700;2023-04-15T02:19:56;8.40;;;5.27;;
19705;SDS011;10003;52.506;4.700;2023-04-15T02:22:25;2.57;;;2.37;;
19705;SDS011;10003;52.506;4.700;2023-04-15T02:24:54;3.50;;;2.73;;
19705;SDS011;10003;52.506;4.700;2023-04-15T02:27:23;12.33;;;5.83;;
19705;SDS011;10003;52.506;4.700;2023-04-15T02:29:51;5.33;;;4.30;;
19705;SDS011;10003;52.506;4.700;2023-04-15T02:32:19;3.93;;;3.63;;
19705;SDS011;10003;52.506;4.700;2023-04-15T02:34:49;5.70;;;5.10;;
19705;SDS011;10003;52.506;4.700;2023-04-15T02:37:19;4.93;;;3.63;;
19705;SDS011;10003;52.506;4.700;2023-04-15T02:39:48;5.47;;;3.63;;
19705;SDS011;10003;52.506;4.700;2023-04-15T02:42:16;4.63;;;3.53;;
19705;SDS011;10003;52.506;4.700;2023-04-15T02:44:46;6.10;;;5.50;;
19705;SDS011;10003;52.506;4.700;2023-04-15T02:47:15;8.03;;;5.87;;
19705;SDS011;10003;52.506;4.700;2023-04-15T02:49:44;12.50;;;6.60;;
19705;SDS011;10003;52.506;4.700;2023-04-15T02:52:12;4.20;;;3.80;;
19705;SDS011;10003;52.506;4.700;2023-04-15T02:54:42;6.47;;;4.57;;
19705;SDS011;10003;52.506;4.700;2023-04-15T02:57:10;2.70;;;2.50;;
19705;SDS011;10003;52.506;4.700;2023-04-15T02:59:39;5.20;;;4.70;;
19705;SDS011;10003;52.506;4.700;2023-04-15T03:02:07;4.90;;;4.10;;
19705;SDS011;10003;52.506;4.700;2023-04-15T03:04:36;7.43;;;5.87;;
19705;SDS011;10003;52.506;4.700;2023-04-15T03:07:05;5.60;;;4.93;;
19705;SDS011;10003;52.506;4.700;2023-04-15T03:09:33;3.37;;;3.07;;
19705;SDS011;10003;52.506;4.700;2023-04-15T03:12:03;6.10;;;5.23;;
19705;SDS011;10003;52.506;4.700;2023-04-15T03:14:31;8.67;;;6.67;;
19705;SDS011;10003;52.506;4.700;2023-04-15T03:17:00;5.53;;;4.73;;
19705;SDS011;10003;52.506;4.700;2023-04-15T03:19:28;3.47;;;3.17;;
19705;SDS011;10003;52.506;4.700;2023-04-15T03:21:57;6.53;;;4.90;;
19705;SDS011;10003;52.506;4.700;2023-04-15T03:24:25;4.67;;;4.23;;
19705;SDS011;10003;52.506;4.700;2023-04-15T03:26:55;4.60;;;4.20;;
19705;SDS011;10003;52.506;4.700;2023-04-15T03:29:24;4.67;;;3.97;;
19705;SDS011;10003;52.506;4.700;2023-04-15T03:31:53;2.53;;;2.33;;
19705;SDS011;10003;52.506;4.700;2023-04-15T03:34:21;6.60;;;5.47;;
19705;SDS011;10003;52.506;4.700;2023-04-15T03:36:50;2.67;;;2.30;;
19705;SDS011;10003;52.506;4.700;2023-04-15T03:39:18;5.27;;;4.77;;
19705;SDS011;10003;52.506;4.700;2023-04-15T03:41:47;3.07;;;2.80;;
19705;SDS011;10003;52.506;4.700;2023-04-15T03:44:15;2.40;;;2.20;;
19705;SDS011;10003;52.506;4.700;2023-04-15T03:46:45;4.00;;;2.70;;
19705;SDS011;10003;52.506;4.700;2023-04-15T03:49:14;6.93;;;3.27;;
19705;SDS011;10003;52.506;4.700;2023-04-15T03:51:42;1.57;;;1.47;;
19705;SDS011;10003;52.506;4.700;2023-04-15T03:54:11;3.73;;;3.40;;
19705;SDS011;10003;52.506;4.700;2023-04-15T03:56:40;4.23;;;3.60;;
19705;SDS011;10003;52.506;4.700;2023-04-15T03:59:08;4.67;;;3.63;;
19705;SDS011;10003;52.506;4.700;2023-04-15T04:01:37;6.07;;;4.47;;
19705;SDS011;10003;52.506;4.700;2023-04-15T04:04:07;5.80;;;4.37;;
19705;SDS011;10003;52.506;4.700;2023-04-15T04:06:35;6.90;;;4.27;;
19705;SDS011;10003;52.506;4.700;2023-04-15T04:09:03;3.07;;;2.77;;
19705;SDS011;10003;52.506;4.700;2023-04-15T04:11:32;3.90;;;3.60;;
19705;SDS011;10003;52.506;4.700;2023-04-15T04:14:01;3.43;;;3.17;;
19705;SDS011;10003;52.506;4.700;2023-04-15T04:16:29;5.27;;;3.23;;
19705;SDS011;10003;52.506;4.700;2023-04-15T04:18:57;4.10;;;3.43;;
19705;SDS011;10003;52.506;4.700;2023-04-15T04:21:28;6.27;;;2.30;;
19705;SDS011;10003;52.506;4.700;2023-04-15T04:23:56;1.03;;;1.03;;
19705;SDS011;10003;52.506;4.700;2023-04-15T04:26:25;5.63;;;2.80;;
19705;SDS011;10003;52.506;4.700;2023-04-15T04:28:53;5.77;;;3.17;;
19705;SDS011;10003;52.506;4.700;2023-04-15T04:31:21;3.77;;;2.37;;
19705;SDS011;10003;52.506;4.700;2023-04-15T04:33:50;9.70;;;2.97;;
19705;SDS011;10003;52.506;4.700;2023-04-15T04:36:18;7.20;;;2.80;;
19705;SDS011;10003;52.506;4.700;2023-04-15T04:38:49;16.70;;;5.33;;
19705;SDS011;10003;52.506;4.700;2023-04-15T04:41:18;3.20;;;2.13;;
19705;SDS011;10003;52.506;4.700;2023-04-15T04:43:46;2.60;;;2.40;;
19705;SDS011;10003;52.506;4.700;2023-04-15T04:46:15;4.33;;;2.40;;
19705;SDS011;10003;52.506;4.700;2023-04-15T04:48:43;2.97;;;2.70;;
19705;SDS011;10003;52.506;4.700;2023-04-15T04:51:12;3.50;;;2.63;;
19705;SDS011;10003;52.506;4.700;2023-04-15T04:53:41;4.37;;;3.97;;
19705;SDS011;10003;52.506;4.700;2023-04-15T04:56:11;2.37;;;2.27;;
19705;SDS011;10003;52.506;4.700;2023-04-15T04:58:39;2.77;;;2.57;;
19705;SDS011;10003;52.506;4.700;2023-04-15T05:01:07;1.83;;;1.73;;
19705;SDS011;10003;52.506;4.700;2023-04-15T05:03:36;3.00;;;2.77;;
19705;SDS011;10003;52.506;4.700;2023-04-15T05:06:04;1.90;;;1.80;;
19705;SDS011;10003;52.506;4.700;2023-04-15T05:08:34;5.73;;;4.23;;
19705;SDS011;10003;52.506;4.700;2023-04-15T05:11:05;5.50;;;4.90;;
19705;SDS011;10003;52.506;4.700;2023-04-15T05:13:35;5.53;;;4.90;;
19705;SDS011;10003;52.506;4.700;2023-04-15T05:16:04;6.73;;;5.87;;
19705;SDS011;10003;52.506;4.700;2023-04-15T05:18:33;4.60;;;4.10;;
19705;SDS011;10003;52.506;4.700;2023-04-15T05:21:02;12.27;;;7.07;;
19705;SDS011;10003;52.506;4.700;2023-04-15T05:23:30;4.30;;;3.90;;
19705;SDS011;10003;52.506;4.700;2023-04-15T05:25:59;5.83;;;5.20;;
19705;SDS011;10003;52.506;4.700;2023-04-15T05:28:27;8.97;;;5.43;;
19705;SDS011;10003;52.506;4.700;2023-04-15T05:30:57;10.47;;;5.00;;
19705;SDS011;10003;52.506;4.700;2023-04-15T05:33:26;7.47;;;5.50;;
19705;SDS011;10003;52.506;4.700;2023-04-15T05:35:54;4.70;;;4.20;;
19705;SDS011;10003;52.506;4.700;2023-04-15T05:38:22;5.07;;;4.53;;
19705;SDS011;10003;52.506;4.700;2023-04-15T05:40:51;2.80;;;2.50;;
19705;SDS011;10003;52.506;4.700;2023-04-15T05:43:19;7.13;;;6.20;;
19705;SDS011;10003;52.506;4.700;2023-04-15T05:45:48;6.70;;;5.27;;
19705;SDS011;10003;52.506;4.700;2023-04-15T05:48:18;4.50;;;4.10;;
19705;SDS011;10003;52.506;4.700;2023-04-15T05:50:46;5.87;;;4.80;;
19705;SDS011;10003;52.506;4.700;2023-04-15T05:53:15;11.93;;;7.60;;
19705;SDS011;10003;52.506;4.700;2023-04-15T05:55:43;8.97;;;6.40;;
19705;SDS011;10003;52.506;4.700;2023-04-15T05:58:12;12.63;;;8.43;;
19705;SDS011;10003;52.506;4.700;2023-04-15T06:00:43;6.63;;;5.97;;
19705;SDS011;10003;52.506;4.700;2023-04-15T06:03:12;6.80;;;4.77;;
19705;SDS011;10003;52.506;4.700;2023-04-15T06:05:44;6.23;;;5.50;;
19705;SDS011;10003;52.506;4.700;2023-04-15T06:08:13;5.27;;;3.37;;
19705;SDS011;10003;52.506;4.700;2023-04-15T06:10:42;4.50;;;4.10;;
19705;SDS011;10003;52.506;4.700;2023-04-15T06:13:11;3.93;;;3.63;;
19705;SDS011;10003;52.506;4.700;2023-04-15T06:15:39;6.73;;;3.10;;
19705;SDS011;10003;52.506;4.700;2023-04-15T06:18:08;3.97;;;3.57;;
19705;SDS011;10003;52.506;4.700;2023-04-15T06:20:36;3.17;;;2.93;;
19705;SDS011;10003;52.506;4.700;2023-04-15T06:23:06;6.43;;;4.47;;
19705;SDS011;10003;52.506;4.700;2023-04-15T06:25:35;7.77;;;5.83;;
19705;SDS011;10003;52.506;4.700;2023-04-15T06:28:03;4.30;;;3.87;;
19705;SDS011;10003;52.506;4.700;2023-04-15T06:30:32;5.77;;;5.23;;
19705;SDS011;10003;52.506;4.700;2023-04-15T06:33:01;7.07;;;4.47;;
19705;SDS011;10003;52.506;4.700;2023-04-15T06:35:30;4.90;;;4.47;;
19705;SDS011;10003;52.506;4.700;2023-04-15T06:37:59;4.37;;;3.80;;
19705;SDS011;10003;52.506;4.700;2023-04-15T06:42:58;11.53;;;5.40;;
19705;SDS011;10003;52.506;4.700;2023-04-15T06:45:27;4.07;;;3.70;;
19705;SDS011;10003;52.506;4.700;2023-04-15T06:47:55;6.37;;;5.77;;
19705;SDS011;10003;52.506;4.700;2023-04-15T06:50:24;2.67;;;2.47;;
19705;SDS011;10003;52.506;4.700;2023-04-15T06:52:52;5.40;;;3.90;;
19705;SDS011;10003;52.506;4.700;2023-04-15T06:55:21;7.90;;;4.03;;
19705;SDS011;10003;52.506;4.700;2023-04-15T06:57:49;10.03;;;6.93;;
19705;SDS011;10003;52.506;4.700;2023-04-15T07:00:22;5.43;;;4.77;;
19705;SDS011;10003;52.506;4.700;2023-04-15T07:02:52;5.67;;;5.03;;
19705;SDS011;10003;52.506;4.700;2023-04-15T07:05:23;9.33;;;6.07;;
19705;SDS011;10003;52.506;4.700;2023-04-15T07:07:51;4.80;;;4.33;;
19705;SDS011;10003;52.506;4.700;2023-04-15T07:10:21;10.30;;;6.43;;
19705;SDS011;10003;52.506;4.700;2023-04-15T07:12:51;5.07;;;4.60;;
19705;SDS011;10003;52.506;4.700;2023-04-15T07:15:19;9.70;;;6.27;;
19705;SDS011;10003;52.506;4.700;2023-04-15T07:17:50;6.70;;;4.57;;
19705;SDS011;10003;52.506;4.700;2023-04-15T07:20:19;4.87;;;4.33;;
19705;SDS011;10003;52.506;4.700;2023-04-15T07:22:48;6.97;;;5.13;;
19705;SDS011;10003;52.506;4.700;2023-04-15T07:25:17;5.83;;;4.53;;
19705;SDS011;10003;52.506;4.700;2023-04-15T07:27:47;6.07;;;4.40;;
19705;SDS011;10003;52.506;4.700;2023-04-15T07:30:16;9.03;;;4.67;;
19705;SDS011;10003;52.506;4.700;2023-04-15T07:32:44;7.80;;;5.57;;
19705;SDS011;10003;52.506;4.700;2023-04-15T07:35:14;5.87;;;5.27;;
19705;SDS011;10003;52.506;4.700;2023-04-15T07:37:42;5.40;;;4.67;;
19705;SDS011;10003;52.506;4.700;2023-04-15T07:40:11;5.97;;;5.37;;
19705;SDS011;10003;52.506;4.700;2023-04-15T07:42:39;4.80;;;4.30;;
19705;SDS011;10003;52.506;4.700;2023-04-15T07:45:09;4.90;;;4.23;;
19705;SDS011;10003;52.506;4.700;2023-04-15T07:47:38;2.47;;;2.27;;
19705;SDS011;10003;52.506;4.700;2023-04-15T07:50:08;6.20;;;5.07;;
19705;SDS011;10003;52.506;4.700;2023-04-15T07:52:38;6.63;;;4.90;;
19705;SDS011;10003;52.506;4.700;2023-04-15T07:55:07;4.27;;;3.83;;
19705;SDS011;10003;52.506;4.700;2023-04-15T07:57:36;6.17;;;3.47;;
19705;SDS011;10003;52.506;4.700;2023-04-15T08:00:05;5.50;;;4.60;;
19705;SDS011;10003;52.506;4.700;2023-04-15T08:02:33;2.80;;;2.50;;
19705;SDS011;10003;52.506;4.700;2023-04-15T08:05:05;4.07;;;3.77;;
19705;SDS011;10003;52.506;4.700;2023-04-15T08:07:34;5.03;;;4.53;;
19705;SDS011;10003;52.506;4.700;2023-04-15T08:10:04;3.77;;;3.47;;
19705;SDS011;10003;52.506;4.700;2023-04-15T08:12:33;5.67;;;4.37;;
19705;SDS011;10003;52.506;4.700;2023-04-15T08:15:02;4.47;;;4.03;;
19705;SDS011;10003;52.506;4.700;2023-04-15T08:17:30;3.30;;;3.00;;
19705;SDS011;10003;52.506;4.700;2023-04-15T08:19:59;3.40;;;3.10;;
19705;SDS011;10003;52.506;4.700;2023-04-15T08:22:27;2.43;;;2.23;;
19705;SDS011;10003;52.506;4.700;2023-04-15T08:24:56;3.13;;;2.93;;
19705;SDS011;10003;52.506;4.700;2023-04-15T08:27:26;4.20;;;3.90;;
19705;SDS011;10003;52.506;4.700;2023-04-15T08:29:54;4.60;;;3.60;;
19705;SDS011;10003;52.506;4.700;2023-04-15T08:32:23;5.60;;;4.77;;
19705;SDS011;10003;52.506;4.700;2023-04-15T08:34:52;2.93;;;2.73;;
19705;SDS011;10003;52.506;4.700;2023-04-15T08:37:21;6.70;;;4.20;;
19705;SDS011;10003;52.506;4.700;2023-04-15T08:39:49;5.63;;;4.20;;
19705;SDS011;10003;52.506;4.700;2023-04-15T08:42:18;4.47;;;3.53;;
19705;SDS011;10003;52.506;4.700;2023-04-15T08:44:51;4.70;;;3.53;;
19705;SDS011;10003;52.506;4.700;2023-04-15T08:47:20;7.40;;;2.80;;
19705;SDS011;10003;52.506;4.700;2023-04-15T08:49:50;3.73;;;3.43;;
19705;SDS011;10003;52.506;4.700;2023-04-15T08:52:20;4.33;;;3.73;;
19705;SDS011;10003;52.506;4.700;2023-04-15T08:54:48;3.13;;;2.83;;
19705;SDS011;10003;52.506;4.700;2023-04-15T08:57:17;2.50;;;2.17;;
19705;SDS011;10003;52.506;4.700;2023-04-15T08:59:45;4.00;;;3.47;;
19705;SDS011;10003;52.506;4.700;2023-04-15T09:02:16;5.57;;;3.80;;
19705;SDS011;10003;52.506;4.700;2023-04-15T09:04:44;4.20;;;3.63;;
19705;SDS011;10003;52.506;4.700;2023-04-15T09:07:13;2.20;;;2.07;;
19705;SDS011;10003;52.506;4.700;2023-04-15T09:09:42;2.70;;;2.50;;
19705;SDS011;10003;52.506;4.700;2023-04-15T09:12:10;8.53;;;2.50;;
19705;SDS011;10003;52.506;4.700;2023-04-15T09:14:39;4.20;;;3.80;;
19705;SDS011;10003;52.506;4.700;2023-04-15T09:17:09;3.37;;;3.13;;
19705;SDS011;10003;52.506;4.700;2023-04-15T09:19:39;3.97;;;3.27;;
19705;SDS011;10003;52.506;4.700;2023-04-15T09:22:08;6.23;;;3.67;;
19705;SDS011;10003;52.506;4.700;2023-04-15T09:24:39;3.90;;;3.43;;
19705;SDS011;10003;52.506;4.700;2023-04-15T09:27:08;3.47;;;3.07;;
19705;SDS011;10003;52.506;4.700;2023-04-15T09:29:37;7.20;;;3.63;;
19705;SDS011;10003;52.506;4.700;2023-04-15T09:32:09;3.67;;;3.37;;
19705;SDS011;10003;52.506;4.700;2023-04-15T09:34:39;4.23;;;3.37;;
19705;SDS011;10003;52.506;4.700;2023-04-15T09:37:08;3.20;;;2.83;;
19705;SDS011;10003;52.506;4.700;2023-04-15T09:39:57;2.97;;;2.70;;
19705;SDS011;10003;52.506;4.700;2023-04-15T09:42:25;2.80;;;2.60;;
19705;SDS011;10003;52.506;4.700;2023-04-15T09:44:54;6.33;;;3.03;;
19705;SDS011;10003;52.506;4.700;2023-04-15T09:47:26;3.37;;;2.80;;
19705;SDS011;10003;52.506;4.700;2023-04-15T09:49:56;3.13;;;2.63;;
19705;SDS011;10003;52.506;4.700;2023-04-15T09:52:24;5.77;;;3.67;;
19705;SDS011;10003;52.506;4.700;2023-04-15T09:54:55;6.37;;;3.00;;
19705;SDS011;10003;52.506;4.700;2023-04-15T09:57:24;2.87;;;2.57;;
19705;SDS011;10003;52.506;4.700;2023-04-15T09:59:52;3.50;;;3.03;;
19705;SDS011;10003;52.506;4.700;2023-04-15T10:02:21;1.70;;;1.30;;
19705;SDS011;10003;52.506;4.700;2023-04-15T10:04:50;2.80;;;2.50;;
19705;SDS011;10003;52.506;4.700;2023-04-15T10:07:21;4.83;;;3.33;;
19705;SDS011;10003;52.506;4.700;2023-04-15T10:09:49;3.40;;;2.40;;
19705;SDS011;10003;52.506;4.700;2023-04-15T10:12:18;2.00;;;1.90;;
19705;SDS011;10003;52.506;4.700;2023-04-15T10:14:47;3.87;;;1.83;;
19705;SDS011;10003;52.506;4.700;2023-04-15T10:17:16;3.40;;;3.07;;
19705;SDS011;10003;52.506;4.700;2023-04-15T10:19:45;3.07;;;2.43;;
19705;SDS011;10003;52.506;4.700;2023-04-15T10:22:14;2.40;;;2.13;;
19705;SDS011;10003;52.506;4.700;2023-04-15T10:24:44;2.40;;;2.00;;
19705;SDS011;10003;52.506;4.700;2023-04-15T10:27:15;5.33;;;3.37;;
19705;SDS011;10003;52.506;4.700;2023-04-15T10:29:44;9.90;;;3.07;;
19705;SDS011;10003;52.506;4.700;2023-04-15T10:32:13;4.27;;;3.87;;
19705;SDS011;10003;52.506;4.700;2023-04-15T10:34:41;5.73;;;3.30;;
19705;SDS011;10003;52.506;4.700;2023-04-15T10:37:10;2.37;;;2.17;;
19705;SDS011;10003;52.506;4.700;2023-04-15T10:39:39;3.80;;;2.80;;
19705;SDS011;10003;52.506;4.700;2023-04-15T10:42:10;4.03;;;2.97;;
19705;SDS011;10003;52.506;4.700;2023-04-15T10:44:41;4.23;;;3.30;;
19705;SDS011;10003;52.506;4.700;2023-04-15T10:47:10;3.23;;;2.90;;
19705;SDS011;10003;52.506;4.700;2023-04-15T10:49:42;3.27;;;2.50;;
19705;SDS011;10003;52.506;4.700;2023-04-15T10:52:11;2.53;;;2.33;;
19705;SDS011;10003;52.506;4.700;2023-04-15T10:54:39;6.33;;;2.83;;
19705;SDS011;10003;52.506;4.700;2023-04-15T10:57:13;3.77;;;1.90;;
19705;SDS011;10003;52.506;4.700;2023-04-15T11:00:01;4.10;;;2.23;;
19705;SDS011;10003;52.506;4.700;2023-04-15T11:02:42;2.43;;;2.17;;
19705;SDS011;10003;52.506;4.700;2023-04-15T11:05:11;2.37;;;1.43;;
19705;SDS011;10003;52.506;4.700;2023-04-15T11:07:46;1.43;;;1.30;;
19705;SDS011;10003;52.506;4.700;2023-04-15T11:13:04;4.17;;;1.70;;
19705;SDS011;10003;52.506;4.700;2023-04-15T11:15:33;2.83;;;1.80;;
19705;SDS011;10003;52.506;4.700;2023-04-15T11:18:07;2.07;;;1.97;;
19705;SDS011;10003;52.506;4.700;2023-04-15T11:20:37;1.67;;;1.57;;
19705;SDS011;10003;52.506;4.700;2023-04-15T11:23:05;1.70;;;1.60;;
19705;SDS011;10003;52.506;4.700;2023-04-15T11:25:41;4.20;;;2.03;;
19705;SDS011;10003;52.506;4.700;2023-04-15T11:28:11;2.10;;;1.90;;
19705;SDS011;10003;52.506;4.700;2023-04-15T11:30:41;2.33;;;2.10;;
19705;SDS011;10003;52.506;4.700;2023-04-15T11:33:10;2.03;;;1.87;;
19705;SDS011;10003;52.506;4.700;2023-04-15T11:35:40;2.03;;;1.73;;
19705;SDS011;10003;52.506;4.700;2023-04-15T11:38:09;2.10;;;1.70;;
19705;SDS011;10003;52.506;4.700;2023-04-15T11:40:38;1.63;;;1.57;;
19705;SDS011;10003;52.506;4.700;2023-04-15T11:43:12;2.13;;;1.93;;
19705;SDS011;10003;52.506;4.700;2023-04-15T11:45:48;1.70;;;1.60;;
19705;SDS011;10003;52.506;4.700;2023-04-15T11:48:17;2.30;;;2.10;;
19705;SDS011;10003;52.506;4.700;2023-04-15T11:50:51;2.30;;;2.10;;
19705;SDS011;10003;52.506;4.700;2023-04-15T11:53:19;5.50;;;2.40;;
19705;SDS011;10003;52.506;4.700;2023-04-15T11:55:49;3.00;;;2.53;;
19705;SDS011;10003;52.506;4.700;2023-04-15T11:58:19;4.90;;;2.00;;
19705;SDS011;10003;52.506;4.700;2023-04-15T12:00:49;2.10;;;1.77;;
19705;SDS011;10003;52.506;4.700;2023-04-15T12:03:21;5.13;;;2.33;;
19705;SDS011;10003;52.506;4.700;2023-04-15T12:08:54;6.03;;;2.00;;
19705;SDS011;10003;52.506;4.700;2023-04-15T12:11:27;3.03;;;1.90;;
19705;SDS011;10003;52.506;4.700;2023-04-15T12:13:58;1.70;;;1.60;;
19705;SDS011;10003;52.506;4.700;2023-04-15T12:16:30;3.07;;;2.50;;
19705;SDS011;10003;52.506;4.700;2023-04-15T12:19:15;5.80;;;2.50;;
19705;SDS011;10003;52.506;4.700;2023-04-15T12:21:44;5.23;;;2.67;;
19705;SDS011;10003;52.506;4.700;2023-04-15T12:24:13;2.20;;;1.93;;
19705;SDS011;10003;52.506;4.700;2023-04-15T12:26:45;2.60;;;2.40;;
19705;SDS011;10003;52.506;4.700;2023-04-15T12:29:15;1.67;;;1.57;;
19705;SDS011;10003;52.506;4.700;2023-04-15T12:31:48;4.60;;;1.77;;
19705;SDS011;10003;52.506;4.700;2023-04-15T12:34:17;2.07;;;1.83;;
19705;SDS011;10003;52.506;4.700;2023-04-15T12:36:46;3.00;;;2.23;;
19705;SDS011;10003;52.506;4.700;2023-04-15T12:39:14;2.10;;;1.90;;
19705;SDS011;10003;52.506;4.700;2023-04-15T12:41:43;1.70;;;1.60;;
19705;SDS011;10003;52.506;4.700;2023-04-15T12:44:11;2.10;;;2.00;;
19705;SDS011;10003;52.506;4.700;2023-04-15T12:46:41;2.30;;;1.97;;
19705;SDS011;10003;52.506;4.700;2023-04-15T12:49:09;1.93;;;1.77;;
19705;SDS011;10003;52.506;4.700;2023-04-15T12:51:39;5.13;;;2.50;;
19705;SDS011;10003;52.506;4.700;2023-04-15T12:54:08;2.63;;;2.03;;
19705;SDS011;10003;52.506;4.700;2023-04-15T12:56:36;4.40;;;2.00;;
19705;SDS011;10003;52.506;4.700;2023-04-15T12:59:05;2.87;;;2.67;;
19705;SDS011;10003;52.506;4.700;2023-04-15T13:01:35;2.60;;;2.40;;
19705;SDS011;10003;52.506;4.700;2023-04-15T13:04:05;2.63;;;1.80;;
19705;SDS011;10003;52.506;4.700;2023-04-15T13:06:34;1.50;;;1.40;;
19705;SDS011;10003;52.506;4.700;2023-04-15T13:09:03;1.87;;;1.33;;
19705;SDS011;10003;52.506;4.700;2023-04-15T13:11:32;1.67;;;1.53;;
19705;SDS011;10003;52.506;4.700;2023-04-15T13:14:02;3.97;;;1.73;;
19705;SDS011;10003;52.506;4.700;2023-04-15T13:16:31;1.40;;;1.30;;
19705;SDS011;10003;52.506;4.700;2023-04-15T13:18:59;1.63;;;1.40;;
19705;SDS011;10003;52.506;4.700;2023-04-15T13:21:30;1.53;;;1.43;;
19705;SDS011;10003;52.506;4.700;2023-04-15T13:24:01;1.70;;;1.43;;
19705;SDS011;10003;52.506;4.700;2023-04-15T13:26:32;7.00;;;2.30;;
19705;SDS011;10003;52.506;4.700;2023-04-15T13:29:01;2.47;;;2.00;;
19705;SDS011;10003;52.506;4.700;2023-04-15T13:31:29;4.13;;;1.97;;
19705;SDS011;10003;52.506;4.700;2023-04-15T13:33:58;5.87;;;1.90;;
19705;SDS011;10003;52.506;4.700;2023-04-15T13:36:26;2.83;;;1.57;;
19705;SDS011;10003;52.506;4.700;2023-04-15T13:38:56;5.33;;;1.93;;
19705;SDS011;10003;52.506;4.700;2023-04-15T13:41:25;2.73;;;1.43;;
19705;SDS011;10003;52.506;4.700;2023-04-15T13:43:56;4.70;;;2.00;;
19705;SDS011;10003;52.506;4.700;2023-04-15T13:46:25;1.20;;;1.20;;
19705;SDS011;10003;52.506;4.700;2023-04-15T13:48:53;3.10;;;1.70;;
19705;SDS011;10003;52.506;4.700;2023-04-15T13:51:21;3.80;;;2.13;;
19705;SDS011;10003;52.506;4.700;2023-04-15T13:53:50;2.27;;;1.40;;
19705;SDS011;10003;52.506;4.700;2023-04-15T13:56:20;1.90;;;1.60;;
19705;SDS011;10003;52.506;4.700;2023-04-15T13:58:48;1.43;;;1.33;;
19705;SDS011;10003;52.506;4.700;2023-04-15T14:01:18;1.67;;;1.40;;
19705;SDS011;10003;52.506;4.700;2023-04-15T14:03:46;2.23;;;1.60;;
19705;SDS011;10003;52.506;4.700;2023-04-15T14:06:15;1.43;;;1.33;;
19705;SDS011;10003;52.506;4.700;2023-04-15T14:08:43;2.70;;;1.87;;
19705;SDS011;10003;52.506;4.700;2023-04-15T14:11:12;2.47;;;2.00;;
19705;SDS011;10003;52.506;4.700;2023-04-15T14:13:42;7.27;;;2.53;;
19705;SDS011;10003;52.506;4.700;2023-04-15T14:16:10;3.20;;;1.87;;
19705;SDS011;10003;52.506;4.700;2023-04-15T14:18:39;1.97;;;1.70;;
19705;SDS011;10003;52.506;4.700;2023-04-15T14:21:07;2.83;;;1.87;;
19705;SDS011;10003;52.506;4.700;2023-04-15T14:23:36;7.17;;;1.90;;
19705;SDS011;10003;52.506;4.700;2023-04-15T14:26:04;1.93;;;1.77;;
19705;SDS011;10003;52.506;4.700;2023-04-15T14:28:33;2.00;;;1.50;;
19705;SDS011;10003;52.506;4.700;2023-04-15T14:31:05;2.07;;;1.87;;
19705;SDS011;10003;52.506;4.700;2023-04-15T14:33:33;3.87;;;3.10;;
19705;SDS011;10003;52.506;4.700;2023-04-15T14:36:02;1.27;;;1.20;;
19705;SDS011;10003;52.506;4.700;2023-04-15T14:38:32;1.90;;;1.80;;
19705;SDS011;10003;52.506;4.700;2023-04-15T14:41:03;7.07;;;2.33;;
19705;SDS011;10003;52.506;4.700;2023-04-15T14:43:32;2.67;;;2.27;;
19705;SDS011;10003;52.506;4.700;2023-04-15T14:46:01;4.27;;;1.87;;
19705;SDS011;10003;52.506;4.700;2023-04-15T14:48:31;2.70;;;1.87;;
19705;SDS011;10003;52.506;4.700;2023-04-15T14:50:59;2.27;;;1.90;;
19705;SDS011;10003;52.506;4.700;2023-04-15T14:53:28;2.53;;;2.30;;
19705;SDS011;10003;52.506;4.700;2023-04-15T14:55:57;2.87;;;1.50;;
19705;SDS011;10003;52.506;4.700;2023-04-15T14:58:25;2.13;;;1.83;;
19705;SDS011;10003;52.506;4.700;2023-04-15T15:00:54;6.93;;;2.33;;
19705;SDS011;10003;52.506;4.700;2023-04-15T15:03:23;4.00;;;1.33;;
19705;SDS011;10003;52.506;4.700;2023-04-15T15:05:53;3.27;;;2.23;;
19705;SDS011;10003;52.506;4.700;2023-04-15T15:08:23;5.77;;;1.87;;